Time;durP1;ratioP1;P1;durP2;ratioP2;P2;SDS_P1;SDS_P2;PMS_P1;PMS_P2;Temp;Humidity;BMP_temperature;BMP_pressure;BME280_temperature;BME280_humidity;BME280_pressure;Samples;Min_cycle;Max_cycle;Signal;HPM_P1;HPM_P2
2022/09/19 00:00:51;;;;;;;;;;;12.50;89.80;;;;;;5045978;28;19971;-68
2022/09/19 00:03:16;;;;;;;;;;;12.50;90.00;;;;;;5044239;28;20462;-67
2022/09/19 00:05:42;;;;;;;;;;;12.50;89.90;;;;;;5046276;28;19935;-67
2022/09/19 00:08:08;;;;;;;;;;;12.50;89.80;;;;;;5044257;28;20032;-67
2022/09/19 00:10:40;;;;;;;;;;;12.50;89.90;;;;;;5046258;28;20007;-67
2022/09/19 00:13:06;;;;;;;;;;;12.50;90.00;;;;;;5042542;28;20011;-67
2022/09/19 00:15:33;;;;;;;;;;;12.50;89.90;;;;;;5045635;28;19924;-68
2022/09/19 00:17:59;;;;;;;;;;;12.50;89.90;;;;;;5046666;28;19919;-67
2022/09/19 00:20:24;;;;;;;;;;;12.50;89.90;;;;;;5039266;28;20249;-67
2022/09/19 00:25:34;;;;;;;;;;;12.50;89.70;;;;;;5043692;28;19920;-67
2022/09/19 00:27:59;;;;;;;;;;;12.50;89.80;;;;;;5046555;28;19913;-67
2022/09/19 00:30:25;;;;;;;;;;;12.50;89.90;;;;;;5043520;28;20396;-67
2022/09/19 00:32:52;;;;;;;;;;;12.50;89.80;;;;;;5031792;28;19960;-67
2022/09/19 00:35:17;;;;;;;;;;;12.50;90.20;;;;;;5027053;28;19929;-67
2022/09/19 00:37:42;;;;;;;;;;;12.50;89.90;;;;;;5045023;28;19992;-68
2022/09/19 00:40:08;;;;;;;;;;;12.50;90.00;;;;;;5043771;28;19979;-67
2022/09/19 00:42:34;;;;;;;;;;;12.50;90.00;;;;;;5045343;28;19917;-67
2022/09/19 00:45:01;;;;;;;;;;;12.50;89.90;;;;;;5029131;28;19924;-67
2022/09/19 00:47:47;;;;;;;;;;;12.50;89.80;;;;;;5045245;28;19913;-67
2022/09/19 00:50:15;;;;;;;;;;;12.50;89.80;;;;;;5043582;28;19917;-67
2022/09/19 00:52:47;;;;;;;;;;;12.50;89.80;;;;;;5044836;28;19924;-67
2022/09/19 00:55:13;;;;;;;;;;;12.50;89.80;;;;;;5040805;28;20471;-67
2022/09/19 00:57:43;;;;;;;;;;;12.50;90.00;;;;;;5045671;28;19917;-67
2022/09/19 01:00:09;;;;;;;;;;;12.50;90.00;;;;;;5043281;28;19948;-67
2022/09/19 01:02:35;;;;;;;;;;;12.50;89.90;;;;;;5044960;28;19913;-67
2022/09/19 01:05:02;;;;;;;;;;;12.40;90.00;;;;;;5043264;28;20324;-67
2022/09/19 01:07:37;;;;;;;;;;;12.50;90.10;;;;;;5045150;28;19939;-67
2022/09/19 01:10:06;;;;;;;;;;;12.50;90.00;;;;;;5043715;28;19920;-67
2022/09/19 01:12:45;;;;;;;;;;;12.50;90.10;;;;;;5044725;28;20014;-67
2022/09/19 01:15:13;;;;;;;;;;;12.50;89.90;;;;;;5042312;28;19995;-67
2022/09/19 01:17:42;;;;;;;;;;;12.50;89.90;;;;;;5044407;28;20080;-67
2022/09/19 01:20:15;;;;;;;;;;;12.50;90.20;;;;;;5034048;28;19951;-67
2022/09/19 01:23:02;;;;;;;;;;;12.50;89.80;;;;;;5042178;28;20420;-67
2022/09/19 01:25:35;;;;;;;;;;;12.50;89.80;;;;;;5042104;28;19987;-67
2022/09/19 01:28:10;;;;;;;;;;;12.50;89.90;;;;;;5042990;28;19917;-67
2022/09/19 01:30:39;;;;;;;;;;;12.50;89.80;;;;;;5045421;28;19935;-67
2022/09/19 01:33:17;;;;;;;;;;;12.50;89.80;;;;;;5041801;28;19913;-67
2022/09/19 01:35:45;;;;;;;;;;;12.50;89.80;;;;;;5043368;28;19917;-67
2022/09/19 01:38:13;;;;;;;;;;;12.50;89.90;;;;;;5040328;28;19920;-67
2022/09/19 01:40:39;;;;;;;;;;;12.50;90.00;;;;;;5042328;28;19909;-68
2022/09/19 01:43:11;;;;;;;;;;;12.50;90.00;;;;;;5042702;28;19919;-67
2022/09/19 01:45:37;;;;;;;;;;;12.50;90.00;;;;;;5042553;28;19923;-67
2022/09/19 01:48:09;;;;;;;;;;;12.50;89.80;;;;;;5041967;28;19917;-67
2022/09/19 01:50:45;;;;;;;;;;;12.50;89.90;;;;;;5042452;28;19912;-67
2022/09/19 01:53:29;;;;;;;;;;;12.50;89.90;;;;;;5046192;28;20366;-67
2022/09/19 01:56:13;;;;;;;;;;;12.50;89.90;;;;;;5041382;28;19963;-67
2022/09/19 01:58:57;;;;;;;;;;;12.50;89.90;;;;;;5042590;28;19923;-67
2022/09/19 02:01:26;;;;;;;;;;;12.50;90.00;;;;;;5043700;28;19916;-67
2022/09/19 02:03:55;;;;;;;;;;;12.50;90.00;;;;;;5042312;28;19916;-67
2022/09/19 02:06:37;;;;;;;;;;;12.50;90.00;;;;;;5044360;28;19999;-68
2022/09/19 02:09:03;;;;;;;;;;;12.50;90.00;;;;;;5040855;28;20019;-67
2022/09/19 02:11:29;;;;;;;;;;;12.40;90.00;;;;;;5043702;28;20268;-67
2022/09/19 02:13:57;;;;;;;;;;;12.40;90.00;;;;;;5042469;28;19917;-67
2022/09/19 02:16:30;;;;;;;;;;;12.40;90.10;;;;;;5043994;28;19917;-67
2022/09/19 02:19:06;;;;;;;;;;;12.40;90.00;;;;;;5039865;28;19917;-67
2022/09/19 02:21:38;;;;;;;;;;;12.40;90.00;;;;;;5043866;28;19913;-67
2022/09/19 02:24:06;;;;;;;;;;;12.40;90.00;;;;;;5040810;28;20424;-67
2022/09/19 02:26:33;;;;;;;;;;;12.40;90.00;;;;;;5043373;28;19920;-68
2022/09/19 02:28:59;;;;;;;;;;;12.40;90.00;;;;;;5042302;28;19917;-67
2022/09/19 02:31:26;;;;;;;;;;;12.40;90.00;;;;;;5044622;28;20522;-67
2022/09/19 02:33:53;;;;;;;;;;;12.40;90.00;;;;;;5041764;28;19923;-67
2022/09/19 02:36:22;;;;;;;;;;;12.40;90.10;;;;;;5043722;28;19916;-67
2022/09/19 02:38:51;;;;;;;;;;;12.40;90.00;;;;;;5041884;28;20002;-67
2022/09/19 02:41:52;;;;;;;;;;;12.40;90.10;;;;;;5043142;28;20000;-67
2022/09/19 02:44:20;;;;;;;;;;;12.40;90.00;;;;;;5014584;28;20588;-67
2022/09/19 02:47:05;;;;;;;;;;;12.40;90.00;;;;;;5043862;28;19913;-67
2022/09/19 02:49:39;;;;;;;;;;;12.40;90.10;;;;;;5046092;28;19923;-67
2022/09/19 02:52:13;;;;;;;;;;;12.30;90.10;;;;;;5045908;28;20741;-67
2022/09/19 02:54:40;;;;;;;;;;;12.40;90.00;;;;;;5044645;28;20039;-68
2022/09/19 02:57:08;;;;;;;;;;;12.30;90.00;;;;;;5047578;28;19913;-67
2022/09/19 02:59:35;;;;;;;;;;;12.30;90.00;;;;;;5043533;28;20039;-67
2022/09/19 03:02:02;;;;;;;;;;;12.30;90.10;;;;;;5046632;28;19919;-67
2022/09/19 03:04:33;;;;;;;;;;;12.30;90.10;;;;;;5046077;28;19967;-67
2022/09/19 03:07:11;;;;;;;;;;;12.30;90.10;;;;;;5047437;28;19956;-67
2022/09/19 03:09:37;;;;;;;;;;;12.30;90.10;;;;;;5046624;28;19917;-67
2022/09/19 03:12:26;;;;;;;;;;;12.30;90.10;;;;;;5045429;28;19912;-67
2022/09/19 03:14:55;;;;;;;;;;;12.30;90.10;;;;;;5033145;28;20426;-67
2022/09/19 03:17:23;;;;;;;;;;;12.30;90.10;;;;;;5045453;28;20042;-67
2022/09/19 03:19:49;;;;;;;;;;;12.30;90.10;;;;;;5047629;28;19923;-67
2022/09/19 03:22:14;;;;;;;;;;;12.30;90.10;;;;;;5044504;28;19917;-67
2022/09/19 03:24:41;;;;;;;;;;;12.30;90.10;;;;;;5047534;28;20406;-67
2022/09/19 03:27:06;;;;;;;;;;;12.30;90.00;;;;;;5044481;28;20471;-67
2022/09/19 03:29:33;;;;;;;;;;;12.30;90.00;;;;;;5047960;28;19999;-67
2022/09/19 03:31:58;;;;;;;;;;;12.30;90.00;;;;;;5043758;28;19917;-67
2022/09/19 03:34:24;;;;;;;;;;;12.30;90.10;;;;;;5046914;28;20424;-67
2022/09/19 03:36:49;;;;;;;;;;;12.30;90.10;;;;;;5041354;28;19954;-67
2022/09/19 03:39:15;;;;;;;;;;;12.30;90.10;;;;;;5044375;28;20003;-67
2022/09/19 03:41:41;;;;;;;;;;;12.30;90.00;;;;;;5043326;28;19947;-67
2022/09/19 03:44:07;;;;;;;;;;;12.30;90.10;;;;;;5047170;28;19928;-67
2022/09/19 03:46:33;;;;;;;;;;;12.30;90.10;;;;;;5026934;28;19917;-67
2022/09/19 03:49:00;;;;;;;;;;;12.30;90.10;;;;;;5047513;28;20430;-67
2022/09/19 03:51:26;;;;;;;;;;;12.30;90.00;;;;;;5043992;28;19908;-67
2022/09/19 03:53:51;;;;;;;;;;;12.30;90.10;;;;;;5047415;28;19917;-67
2022/09/19 03:56:17;;;;;;;;;;;12.30;90.10;;;;;;5043571;28;19921;-67
2022/09/19 03:58:43;;;;;;;;;;;12.30;90.10;;;;;;5044217;28;19913;-67
2022/09/19 04:01:09;;;;;;;;;;;12.30;90.10;;;;;;5048960;28;20799;-67
2022/09/19 04:03:35;;;;;;;;;;;12.30;90.10;;;;;;5044028;28;19917;-67
2022/09/19 04:06:01;;;;;;;;;;;12.20;90.00;;;;;;5046811;28;19912;-67
2022/09/19 04:08:27;;;;;;;;;;;12.30;90.10;;;;;;5044152;28;19944;-67
2022/09/19 04:10:52;;;;;;;;;;;12.30;90.00;;;;;;5046613;28;19919;-67
2022/09/19 04:13:20;;;;;;;;;;;12.30;90.10;;;;;;5043844;28;20485;-67
2022/09/19 04:15:46;;;;;;;;;;;12.20;90.10;;;;;;5046140;28;19927;-67
2022/09/19 04:18:11;;;;;;;;;;;12.30;90.10;;;;;;5043746;28;19916;-67
2022/09/19 04:20:38;;;;;;;;;;;12.20;90.10;;;;;;5045910;28;19920;-67
2022/09/19 04:23:03;;;;;;;;;;;12.20;90.10;;;;;;5028075;28;20564;-67
2022/09/19 04:25:32;;;;;;;;;;;12.30;90.00;;;;;;5043610;28;19916;-67
2022/09/19 04:28:00;;;;;;;;;;;12.30;90.10;;;;;;5040736;28;19917;-67
2022/09/19 04:30:25;;;;;;;;;;;12.30;90.10;;;;;;5046003;28;20646;-67
2022/09/19 04:32:51;;;;;;;;;;;12.30;90.10;;;;;;5044370;28;19967;-67
2022/09/19 04:35:18;;;;;;;;;;;12.30;90.10;;;;;;5045781;28;20023;-67
2022/09/19 04:37:44;;;;;;;;;;;12.20;90.10;;;;;;5028190;28;19920;-67
2022/09/19 04:40:10;;;;;;;;;;;12.30;90.10;;;;;;5043554;28;19912;-67
2022/09/19 04:42:35;;;;;;;;;;;12.30;90.10;;;;;;5029617;28;19913;-67
2022/09/19 04:45:01;;;;;;;;;;;12.30;90.00;;;;;;5043967;28;19990;-67
2022/09/19 04:47:28;;;;;;;;;;;12.30;90.10;;;;;;5046061;28;19928;-67
2022/09/19 04:49:56;;;;;;;;;;;12.30;90.00;;;;;;5025762;28;19920;-67
2022/09/19 04:52:23;;;;;;;;;;;12.30;90.10;;;;;;5044904;28;20631;-67
2022/09/19 04:54:49;;;;;;;;;;;12.30;90.00;;;;;;5040140;28;19921;-67
2022/09/19 04:57:15;;;;;;;;;;;12.30;90.00;;;;;;5045249;28;19912;-67
2022/09/19 04:59:41;;;;;;;;;;;12.30;90.10;;;;;;5043520;28;19917;-67
2022/09/19 05:02:08;;;;;;;;;;;12.30;90.10;;;;;;5044853;28;19912;-67
2022/09/19 05:04:34;;;;;;;;;;;12.30;90.10;;;;;;5043332;28;19912;-67
2022/09/19 05:07:00;;;;;;;;;;;12.30;90.10;;;;;;5026795;28;19967;-67
2022/09/19 05:09:26;;;;;;;;;;;12.30;90.10;;;;;;5042629;28;19913;-67
2022/09/19 05:11:56;;;;;;;;;;;12.30;90.10;;;;;;5044797;28;19916;-67
2022/09/19 05:14:29;;;;;;;;;;;12.30;90.00;;;;;;5023891;28;19913;-67
2022/09/19 05:16:55;;;;;;;;;;;12.30;90.00;;;;;;5044088;28;19917;-67
2022/09/19 05:19:21;;;;;;;;;;;12.30;90.00;;;;;;5045372;28;19920;-67
2022/09/19 05:21:50;;;;;;;;;;;12.30;90.00;;;;;;5041594;28;19920;-67
2022/09/19 05:24:18;;;;;;;;;;;12.30;90.00;;;;;;5045315;28;19917;-67
2022/09/19 05:26:44;;;;;;;;;;;12.30;90.00;;;;;;5042606;28;20568;-68
2022/09/19 05:29:10;;;;;;;;;;;12.30;90.00;;;;;;5045766;28;19913;-67
2022/09/19 05:31:36;;;;;;;;;;;12.30;90.10;;;;;;5042438;28;19917;-67
2022/09/19 05:34:02;;;;;;;;;;;12.30;90.20;;;;;;5045130;28;19912;-67
2022/09/19 05:36:27;;;;;;;;;;;12.30;90.10;;;;;;5042747;28;20031;-68
2022/09/19 05:38:53;;;;;;;;;;;12.30;90.00;;;;;;5044369;28;20867;-67
2022/09/19 05:41:18;;;;;;;;;;;12.30;90.10;;;;;;5042359;28;19917;-67
2022/09/19 05:43:44;;;;;;;;;;;12.30;90.10;;;;;;5045036;28;19935;-67
2022/09/19 05:46:10;;;;;;;;;;;12.30;90.10;;;;;;5043071;28;20447;-67
2022/09/19 05:48:37;;;;;;;;;;;12.30;90.20;;;;;;5043086;28;19916;-67
2022/09/19 05:51:02;;;;;;;;;;;12.30;90.10;;;;;;5042618;28;19924;-67
2022/09/19 05:56:12;;;;;;;;;;;12.30;90.10;;;;;;5038705;28;19932;-67
2022/09/19 05:58:37;;;;;;;;;;;12.30;90.10;;;;;;5044836;28;19916;-67
2022/09/19 06:01:04;;;;;;;;;;;12.30;90.10;;;;;;5044984;28;19919;-67
2022/09/19 06:03:31;;;;;;;;;;;12.30;90.10;;;;;;5024149;28;19913;-67
2022/09/19 06:05:56;;;;;;;;;;;12.30;90.10;;;;;;5026557;28;20347;-68
2022/09/19 06:08:22;;;;;;;;;;;12.30;90.10;;;;;;5043238;28;19913;-67
2022/09/19 06:10:48;;;;;;;;;;;12.20;90.10;;;;;;5044597;28;19952;-67
2022/09/19 06:13:16;;;;;;;;;;;12.20;90.10;;;;;;5042302;28;19924;-67
2022/09/19 06:15:41;;;;;;;;;;;12.30;90.10;;;;;;5044931;28;20538;-67
2022/09/19 06:18:09;;;;;;;;;;;12.30;90.10;;;;;;5042089;28;19928;-67
2022/09/19 06:20:36;;;;;;;;;;;12.30;90.10;;;;;;5044571;28;19951;-67
2022/09/19 06:23:02;;;;;;;;;;;12.30;90.10;;;;;;5045008;28;19917;-67
2022/09/19 06:25:28;;;;;;;;;;;12.30;90.10;;;;;;5049063;28;19959;-67
2022/09/19 06:27:58;;;;;;;;;;;12.30;90.10;;;;;;5045715;28;19924;-67
2022/09/19 06:30:23;;;;;;;;;;;12.30;90.10;;;;;;5048465;28;20227;-67
2022/09/19 06:32:50;;;;;;;;;;;12.30;90.10;;;;;;5045875;28;19928;-67
2022/09/19 06:35:16;;;;;;;;;;;12.30;90.10;;;;;;5048670;28;19917;-67
2022/09/19 06:37:42;;;;;;;;;;;12.30;90.00;;;;;;5028508;28;19973;-67
2022/09/19 06:40:08;;;;;;;;;;;12.30;90.00;;;;;;5048516;28;19921;-68
2022/09/19 06:42:33;;;;;;;;;;;12.30;90.00;;;;;;5029977;28;19912;-67
2022/09/19 06:44:59;;;;;;;;;;;12.40;90.00;;;;;;5046302;28;19967;-67
2022/09/19 06:47:24;;;;;;;;;;;12.30;90.00;;;;;;5029691;28;20316;-67
2022/09/19 06:49:50;;;;;;;;;;;12.30;90.10;;;;;;5045722;28;19921;-67
2022/09/19 06:52:16;;;;;;;;;;;12.40;90.10;;;;;;5047608;28;19924;-67
2022/09/19 06:54:41;;;;;;;;;;;12.40;90.00;;;;;;5044905;28;19920;-67
2022/09/19 06:57:07;;;;;;;;;;;12.40;90.00;;;;;;5047972;28;19924;-67
2022/09/19 06:59:32;;;;;;;;;;;12.40;90.10;;;;;;5046076;28;20023;-67
2022/09/19 07:01:58;;;;;;;;;;;12.40;90.40;;;;;;5047262;28;19917;-67
2022/09/19 07:04:23;;;;;;;;;;;12.40;90.10;;;;;;5046050;28;20020;-67
2022/09/19 07:06:49;;;;;;;;;;;12.40;90.00;;;;;;5047856;28;20250;-67
2022/09/19 07:09:14;;;;;;;;;;;12.40;90.00;;;;;;5045315;28;19924;-67
2022/09/19 07:11:40;;;;;;;;;;;12.40;90.10;;;;;;5047709;28;19966;-67
2022/09/19 07:14:05;;;;;;;;;;;12.50;90.10;;;;;;5045788;28;19952;-67
2022/09/19 07:16:31;;;;;;;;;;;12.40;90.10;;;;;;5047017;28;19924;-67
2022/09/19 07:18:57;;;;;;;;;;;12.50;90.00;;;;;;5047249;28;19916;-67
2022/09/19 07:21:22;;;;;;;;;;;12.50;90.10;;;;;;5044673;28;20358;-67
2022/09/19 07:23:48;;;;;;;;;;;12.50;89.90;;;;;;5047274;28;20000;-67
2022/09/19 07:26:14;;;;;;;;;;;12.50;89.80;;;;;;5045394;28;20662;-67
2022/09/19 07:28:40;;;;;;;;;;;12.60;89.80;;;;;;5047263;28;19920;-67
2022/09/19 07:31:05;;;;;;;;;;;12.60;89.60;;;;;;5045035;28;20013;-67
2022/09/19 07:33:31;;;;;;;;;;;12.60;89.80;;;;;;5046534;28;20385;-67
2022/09/19 07:35:57;;;;;;;;;;;12.70;89.80;;;;;;5044893;28;20419;-67
2022/09/19 07:38:23;;;;;;;;;;;12.70;90.20;;;;;;5046797;28;19917;-67
2022/09/19 07:40:49;;;;;;;;;;;12.70;90.10;;;;;;5045302;28;20015;-67
2022/09/19 07:43:16;;;;;;;;;;;12.70;90.00;;;;;;5047027;28;20050;-67
2022/09/19 07:45:43;;;;;;;;;;;12.80;90.00;;;;;;5045082;28;20524;-67
2022/09/19 07:48:09;;;;;;;;;;;12.80;89.60;;;;;;5046909;28;20067;-67
2022/09/19 07:50:35;;;;;;;;;;;12.80;89.50;;;;;;5044435;28;20015;-67
2022/09/19 07:53:01;;;;;;;;;;;12.80;89.60;;;;;;5045751;28;19913;-67
2022/09/19 07:55:28;;;;;;;;;;;12.90;89.30;;;;;;5047334;28;19946;-67
2022/09/19 07:57:57;;;;;;;;;;;12.90;89.30;;;;;;5044405;28;20556;-67
2022/09/19 08:00:23;;;;;;;;;;;12.90;90.10;;;;;;5047526;28;20528;-67
2022/09/19 08:02:53;;;;;;;;;;;12.90;89.80;;;;;;5044149;28;20019;-67
2022/09/19 08:05:18;;;;;;;;;;;12.90;89.70;;;;;;5047083;28;19924;-67
2022/09/19 08:07:45;;;;;;;;;;;13.00;89.60;;;;;;5043562;28;19946;-67
2022/09/19 08:10:10;;;;;;;;;;;13.00;90.10;;;;;;5046691;28;19919;-67
2022/09/19 08:12:36;;;;;;;;;;;13.10;89.80;;;;;;5046644;28;19917;-67
2022/09/19 08:15:02;;;;;;;;;;;13.10;89.80;;;;;;5046787;28;20328;-67
2022/09/19 08:17:27;;;;;;;;;;;13.10;90.00;;;;;;5043783;28;19999;-67
2022/09/19 08:19:54;;;;;;;;;;;13.10;89.50;;;;;;5046490;28;20012;-67
2022/09/19 08:22:20;;;;;;;;;;;13.10;89.70;;;;;;5026937;28;19963;-67
2022/09/19 08:24:45;;;;;;;;;;;13.20;90.50;;;;;;5046390;28;20687;-67
2022/09/19 08:27:11;;;;;;;;;;;13.20;90.00;;;;;;5044406;28;19923;-67
2022/09/19 08:29:38;;;;;;;;;;;13.20;90.00;;;;;;5046231;28;19913;-67
2022/09/19 08:32:04;;;;;;;;;;;13.30;89.40;;;;;;5044852;28;20513;-67
2022/09/19 08:34:29;;;;;;;;;;;13.30;89.60;;;;;;5045659;28;19912;-67
2022/09/19 08:36:58;;;;;;;;;;;13.30;89.20;;;;;;5046145;28;19920;-67
2022/09/19 08:39:25;;;;;;;;;;;13.40;90.40;;;;;;5043263;28;20033;-67
2022/09/19 08:41:53;;;;;;;;;;;13.40;90.20;;;;;;5045888;28;20431;-67
2022/09/19 08:44:18;;;;;;;;;;;13.40;90.00;;;;;;5043110;28;19921;-68
2022/09/19 08:46:51;;;;;;;;;;;13.50;89.60;;;;;;5045467;28;19913;-67
2022/09/19 08:49:20;;;;;;;;;;;13.40;90.10;;;;;;5043372;28;20001;-67
2022/09/19 08:51:46;;;;;;;;;;;13.50;89.70;;;;;;5045855;28;19916;-67
2022/09/19 08:54:17;;;;;;;;;;;13.50;89.60;;;;;;5043169;28;19923;-67
2022/09/19 08:56:43;;;;;;;;;;;13.60;89.30;;;;;;5045795;28;19963;-67
2022/09/19 08:59:11;;;;;;;;;;;13.50;89.10;;;;;;5042863;28;19975;-67
2022/09/19 09:01:38;;;;;;;;;;;13.60;89.70;;;;;;5045855;28;20008;-67
2022/09/19 09:04:13;;;;;;;;;;;13.60;89.50;;;;;;5043472;28;19921;-68
2022/09/19 09:06:57;;;;;;;;;;;13.60;89.30;;;;;;5045896;28;19912;-67
2022/09/19 09:09:31;;;;;;;;;;;13.60;90.10;;;;;;5042443;28;20350;-67
2022/09/19 09:12:13;;;;;;;;;;;13.70;89.40;;;;;;5045293;28;19939;-68
2022/09/19 09:15:08;;;;;;;;;;;13.70;89.50;;;;;;5041134;28;19974;-67
2022/09/19 09:17:52;;;;;;;;;;;13.70;89.70;;;;;;4969002;28;19964;-67
2022/09/19 09:20:24;;;;;;;;;;;13.80;89.30;;;;;;5040495;28;19917;-68
2022/09/19 09:22:53;;;;;;;;;;;13.80;89.30;;;;;;5045039;28;19917;-67
2022/09/19 09:25:29;;;;;;;;;;;13.90;89.60;;;;;;5042843;28;19913;-67
2022/09/19 09:27:57;;;;;;;;;;;13.90;89.70;;;;;;5028673;28;20637;-67
2022/09/19 09:30:22;;;;;;;;;;;13.90;88.80;;;;;;5042701;28;19948;-67
2022/09/19 09:32:54;;;;;;;;;;;14.00;88.40;;;;;;5044718;28;19948;-67
2022/09/19 09:35:34;;;;;;;;;;;14.10;88.50;;;;;;5042912;28;19920;-67
2022/09/19 09:38:08;;;;;;;;;;;14.10;88.80;;;;;;5044046;28;19960;-67
2022/09/19 09:43:20;;;;;;;;;;;14.20;88.40;;;;;;5043571;28;19928;-67
2022/09/19 09:45:48;;;;;;;;;;;14.30;88.30;;;;;;5042730;28;19924;-67
2022/09/19 09:48:28;;;;;;;;;;;14.40;87.90;;;;;;5044836;28;19913;-67
2022/09/19 09:50:53;;;;;;;;;;;14.40;88.00;;;;;;5042730;28;19916;-67
2022/09/19 09:53:22;;;;;;;;;;;14.50;87.70;;;;;;5029736;28;19920;-67
2022/09/19 10:03:33;;;;;;;;;;;14.60;87.60;;;;;;5029048;28;19952;-67
2022/09/19 10:04:46;;;;;;;;;;;14.60;87.60;;;;;;5041598;28;20072;-67
2022/09/19 10:07:12;;;;;;;;;;;14.60;87.70;;;;;;5041928;28;19917;-67
2022/09/19 10:09:58;;;;;;;;;;;14.50;88.70;;;;;;5045850;28;20010;-67
2022/09/19 10:12:26;;;;;;;;;;;14.50;88.90;;;;;;5042511;28;19963;-67
2022/09/19 10:14:56;;;;;;;;;;;14.60;88.30;;;;;;5044181;28;19917;-67
2022/09/19 10:17:22;;;;;;;;;;;14.60;88.60;;;;;;5039972;28;19916;-67
2022/09/19 10:19:51;;;;;;;;;;;14.70;88.10;;;;;;5044331;28;20479;-67
2022/09/19 10:22:17;;;;;;;;;;;14.70;88.50;;;;;;5038044;28;19967;-67
2022/09/19 10:24:51;;;;;;;;;;;14.70;88.80;;;;;;5044459;28;19913;-67
2022/09/19 10:27:16;;;;;;;;;;;14.60;88.50;;;;;;5036016;28;20277;-67
2022/09/19 10:29:51;;;;;;;;;;;14.60;88.50;;;;;;5044555;28;19913;-67
2022/09/19 10:32:21;;;;;;;;;;;14.50;88.90;;;;;;5041607;28;20421;-67
2022/09/19 10:34:50;;;;;;;;;;;14.60;88.70;;;;;;5043765;28;19924;-67
2022/09/19 10:37:21;;;;;;;;;;;14.70;88.20;;;;;;5042098;28;19913;-67
2022/09/19 10:39:48;;;;;;;;;;;14.80;88.00;;;;;;5043947;28;20029;-67
2022/09/19 10:42:24;;;;;;;;;;;14.80;88.20;;;;;;5042580;28;19913;-67
2022/09/19 10:44:52;;;;;;;;;;;14.90;88.00;;;;;;5043828;28;20361;-67
2022/09/19 10:47:18;;;;;;;;;;;14.90;87.50;;;;;;5041021;28;19948;-67
2022/09/19 10:49:46;;;;;;;;;;;15.00;87.40;;;;;;5043606;28;20354;-67
2022/09/19 10:52:20;;;;;;;;;;;15.10;87.40;;;;;;5044253;28;19920;-67
2022/09/19 10:54:45;;;;;;;;;;;15.10;87.80;;;;;;5040891;28;20504;-67
2022/09/19 10:57:36;;;;;;;;;;;15.20;87.60;;;;;;5044136;28;20063;-67
2022/09/19 11:00:03;;;;;;;;;;;15.20;87.40;;;;;;5041639;28;19917;-67
2022/09/19 11:02:29;;;;;;;;;;;15.30;87.40;;;;;;5043850;28;19944;-67
2022/09/19 11:05:03;;;;;;;;;;;15.50;87.00;;;;;;5041738;28;20032;-67
2022/09/19 11:07:41;;;;;;;;;;;15.70;86.70;;;;;;5044209;28;19912;-67
2022/09/19 11:10:27;;;;;;;;;;;15.70;86.40;;;;;;5044004;28;19917;-67
2022/09/19 11:13:04;;;;;;;;;;;15.70;86.70;;;;;;5047571;28;20676;-67
2022/09/19 11:15:32;;;;;;;;;;;15.70;86.70;;;;;;5045487;28;19921;-67
2022/09/19 11:18:09;;;;;;;;;;;15.70;86.70;;;;;;5047676;28;19940;-67
2022/09/19 11:21:05;;;;;;;;;;;15.70;86.60;;;;;;5044590;28;19966;-67
2022/09/19 11:23:30;;;;;;;;;;;15.80;86.50;;;;;;5042449;28;19948;-67
2022/09/19 11:26:09;;;;;;;;;;;16.00;86.40;;;;;;5044482;28;19955;-67
2022/09/19 11:28:44;;;;;;;;;;;16.00;86.30;;;;;;5046803;28;19967;-67
2022/09/19 11:31:28;;;;;;;;;;;16.00;86.40;;;;;;5044752;28;19917;-67
2022/09/19 11:34:11;;;;;;;;;;;16.10;85.80;;;;;;5045150;28;19909;-67
2022/09/19 11:36:56;;;;;;;;;;;16.10;86.00;;;;;;5047040;28;19927;-67
2022/09/19 11:39:24;;;;;;;;;;;16.20;85.80;;;;;;5042719;28;19959;-67
2022/09/19 11:42:08;;;;;;;;;;;16.30;85.90;;;;;;5047447;28;19971;-67
2022/09/19 11:44:52;;;;;;;;;;;16.30;85.40;;;;;;5043224;28;19909;-66
2022/09/19 11:47:18;;;;;;;;;;;16.30;85.30;;;;;;5047653;28;19921;-67
2022/09/19 11:49:51;;;;;;;;;;;16.40;85.10;;;;;;5045086;28;19912;-66
2022/09/19 11:52:35;;;;;;;;;;;16.50;84.80;;;;;;5046178;28;19969;-66
2022/09/19 11:55:01;;;;;;;;;;;16.50;84.60;;;;;;5043157;28;19924;-67
2022/09/19 11:57:30;;;;;;;;;;;16.50;84.90;;;;;;5047494;28;20438;-67
2022/09/19 12:00:14;;;;;;;;;;;16.50;84.90;;;;;;5047123;28;19947;-68
2022/09/19 12:02:46;;;;;;;;;;;16.50;84.90;;;;;;5045436;28;20413;-67
2022/09/19 12:05:17;;;;;;;;;;;16.40;85.00;;;;;;5045159;28;19920;-67
2022/09/19 12:08:01;;;;;;;;;;;16.40;85.10;;;;;;5044330;28;19924;-67
2022/09/19 12:10:32;;;;;;;;;;;16.30;85.20;;;;;;5043920;28;19923;-67
2022/09/19 12:13:05;;;;;;;;;;;16.30;85.80;;;;;;5045837;28;19928;-67
2022/09/19 12:15:35;;;;;;;;;;;16.30;86.20;;;;;;5045749;28;19916;-67
2022/09/19 12:18:09;;;;;;;;;;;16.30;86.20;;;;;;5043791;28;20001;-67
2022/09/19 12:20:43;;;;;;;;;;;16.30;86.10;;;;;;5047515;28;19921;-67
2022/09/19 12:26:00;;;;;;;;;;;16.30;86.00;;;;;;5045487;28;19967;-67
2022/09/19 12:28:30;;;;;;;;;;;16.40;86.40;;;;;;5043839;28;19917;-67
2022/09/19 12:31:02;;;;;;;;;;;16.40;85.80;;;;;;5043085;28;20258;-68
2022/09/19 12:33:47;;;;;;;;;;;16.40;86.10;;;;;;5044205;28;19917;-67
2022/09/19 12:36:20;;;;;;;;;;;16.50;86.00;;;;;;5045775;28;19921;-67
2022/09/19 12:39:02;;;;;;;;;;;16.50;86.10;;;;;;5042083;28;20077;-67
2022/09/19 12:41:47;;;;;;;;;;;16.50;86.20;;;;;;5046968;28;20062;-67
2022/09/19 12:44:19;;;;;;;;;;;16.60;86.30;;;;;;5043945;28;19920;-66
2022/09/19 12:46:57;;;;;;;;;;;16.70;86.10;;;;;;5046542;28;19917;-67
2022/09/19 12:49:35;;;;;;;;;;;16.80;85.90;;;;;;5045982;28;19916;-67
2022/09/19 12:52:10;;;;;;;;;;;16.90;85.10;;;;;;5044208;28;19916;-67
2022/09/19 12:54:39;;;;;;;;;;;16.90;84.60;;;;;;5045367;28;19995;-67
2022/09/19 12:57:10;;;;;;;;;;;16.90;84.30;;;;;;5045860;28;20031;-67
2022/09/19 12:59:36;;;;;;;;;;;16.90;84.60;;;;;;5043678;28;19998;-67
2022/09/19 13:02:12;;;;;;;;;;;16.90;84.90;;;;;;5045949;28;20000;-67
2022/09/19 13:04:48;;;;;;;;;;;16.90;84.20;;;;;;5041737;28;20709;-67
2022/09/19 13:07:18;;;;;;;;;;;17.00;84.00;;;;;;5045385;28;19947;-67
2022/09/19 13:09:52;;;;;;;;;;;17.10;84.30;;;;;;5043417;28;19948;-67
2022/09/19 13:12:20;;;;;;;;;;;17.20;85.50;;;;;;5045905;28;19944;-67
2022/09/19 13:14:45;;;;;;;;;;;17.20;84.50;;;;;;5043249;28;19913;-67
2022/09/19 13:25:37;;;;;;;;;;;17.30;85.10;;;;;;5042935;28;19944;-68
2022/09/19 13:28:19;;;;;;;;;;;17.30;84.00;;;;;;5045436;28;20000;-67
2022/09/19 13:30:51;;;;;;;;;;;17.20;84.60;;;;;;5041420;28;19913;-68
2022/09/19 13:33:21;;;;;;;;;;;17.20;85.00;;;;;;5045436;28;20381;-68
2022/09/19 13:35:49;;;;;;;;;;;17.20;84.00;;;;;;5042855;28;19978;-67
2022/09/19 13:38:25;;;;;;;;;;;17.20;84.50;;;;;;5044152;28;19921;-67
2022/09/19 13:41:02;;;;;;;;;;;17.20;84.70;;;;;;5042880;28;19923;-67
2022/09/19 13:43:49;;;;;;;;;;;17.20;84.60;;;;;;5045473;28;19917;-67
2022/09/19 13:46:21;;;;;;;;;;;17.30;84.30;;;;;;5015052;28;20007;-67
2022/09/19 13:48:53;;;;;;;;;;;17.30;84.20;;;;;;5043472;28;20289;-67
2022/09/19 13:51:27;;;;;;;;;;;17.30;83.90;;;;;;5041978;28;19924;-68
2022/09/19 13:54:19;;;;;;;;;;;17.40;83.60;;;;;;5043591;28;20601;-67
2022/09/19 13:57:04;;;;;;;;;;;17.40;83.40;;;;;;5015215;28;20011;-67
2022/09/19 13:59:42;;;;;;;;;;;17.40;83.30;;;;;;5044320;28;19913;-67
2022/09/19 14:02:10;;;;;;;;;;;17.40;82.90;;;;;;5042758;28;20320;-67
2022/09/19 14:04:54;;;;;;;;;;;17.40;83.10;;;;;;5040571;28;19912;-67
2022/09/19 14:07:25;;;;;;;;;;;17.40;83.40;;;;;;5043395;28;19916;-67
2022/09/19 14:10:02;;;;;;;;;;;17.40;83.00;;;;;;5025859;28;20341;-68
2022/09/19 14:12:35;;;;;;;;;;;17.40;83.00;;;;;;5041457;28;19921;-67
2022/09/19 14:15:00;;;;;;;;;;;17.40;82.60;;;;;;5044382;28;19920;-67
2022/09/19 14:17:31;;;;;;;;;;;17.40;82.80;;;;;;5042468;28;20289;-68
2022/09/19 14:20:00;;;;;;;;;;;17.40;82.40;;;;;;5042325;28;19962;-67
2022/09/19 14:22:34;;;;;;;;;;;17.50;82.40;;;;;;5041703;28;19924;-67
2022/09/19 14:25:19;;;;;;;;;;;17.50;82.20;;;;;;5044173;28;19913;-67
2022/09/19 14:27:47;;;;;;;;;;;17.60;81.90;;;;;;5041896;28;19917;-67
2022/09/19 14:30:23;;;;;;;;;;;17.70;81.80;;;;;;5043359;28;20016;-67
2022/09/19 14:32:58;;;;;;;;;;;17.80;81.10;;;;;;5041783;28;20538;-67
2022/09/19 14:35:30;;;;;;;;;;;17.90;81.10;;;;;;5043422;28;19953;-67
2022/09/19 14:38:12;;;;;;;;;;;17.90;80.80;;;;;;5040936;28;19917;-67
2022/09/19 14:40:44;;;;;;;;;;;17.90;80.60;;;;;;5043546;28;19920;-67
2022/09/19 14:43:15;;;;;;;;;;;17.90;80.50;;;;;;5043165;28;19925;-67
2022/09/19 14:46:01;;;;;;;;;;;17.90;80.20;;;;;;5048058;28;19913;-68
2022/09/19 14:48:36;;;;;;;;;;;17.90;81.10;;;;;;5043916;28;19917;-67
2022/09/19 14:51:05;;;;;;;;;;;17.90;81.20;;;;;;5046929;28;20285;-67
2022/09/19 14:53:33;;;;;;;;;;;17.90;80.80;;;;;;5045791;28;19917;-67
2022/09/19 14:55:58;;;;;;;;;;;18.00;80.50;;;;;;5047160;28;20448;-68
2022/09/19 14:58:25;;;;;;;;;;;18.10;80.30;;;;;;5045256;28;19916;-67